createdAt,value
2023-04-01T00:05:51.122Z,997.92
2023-04-01T00:15:57.293Z,997.89
2023-04-01T00:26:02.750Z,997.86
2023-04-01T00:36:08.268Z,997.88
2023-04-01T00:46:13.483Z,997.85
2023-04-01T00:56:18.317Z,997.91
2023-04-01T01:06:23.666Z,997.90
2023-04-01T01:16:29.194Z,997.89
2023-04-01T01:26:34.595Z,997.89
2023-04-01T01:36:39.895Z,997.92
2023-04-01T01:46:45.184Z,997.93
2023-04-01T01:56:50.735Z,997.99
2023-04-01T02:06:56.136Z,998.09
2023-04-01T02:17:01.561Z,998.07
2023-04-01T02:27:06.915Z,998.04
2023-04-01T02:37:12.364Z,998.08
2023-04-01T02:47:17.701Z,998.18
2023-04-01T02:57:22.993Z,998.31
2023-04-01T03:07:28.491Z,998.32
2023-04-01T03:17:33.831Z,998.30
2023-04-01T03:27:39.037Z,998.36
2023-04-01T03:37:44.460Z,998.42
2023-04-01T03:47:49.554Z,998.56
2023-04-01T03:57:54.891Z,998.59
2023-04-01T04:08:00.485Z,998.70
2023-04-01T04:18:05.447Z,998.76
2023-04-01T04:28:10.648Z,998.83
2023-04-01T04:38:15.509Z,998.89
2023-04-01T04:48:20.865Z,998.94
2023-04-01T04:58:26.453Z,998.99
2023-04-01T05:08:31.497Z,999.01
2023-04-01T05:18:36.697Z,999.02
2023-04-01T05:28:41.874Z,999.10
2023-04-01T05:38:47.263Z,999.17
2023-04-01T05:48:52.532Z,999.25
2023-04-01T05:58:57.972Z,999.34
2023-04-01T06:09:03.547Z,999.44
2023-04-01T06:19:08.507Z,999.53
2023-04-01T06:29:13.252Z,999.61
2023-04-01T06:39:18.413Z,999.68
2023-04-01T06:49:23.612Z,999.76
2023-04-01T06:59:28.581Z,999.79
2023-04-01T07:09:34.145Z,999.86
2023-04-01T07:19:39.322Z,999.87
2023-04-01T07:29:44.552Z,999.96
2023-04-01T07:39:49.802Z,1000.06
2023-04-01T07:49:54.977Z,1000.07
2023-04-01T08:00:00.568Z,1000.12
2023-04-01T08:10:05.991Z,1000.18
2023-04-01T08:20:11.645Z,1000.27
2023-04-01T08:30:17.249Z,1000.33
2023-04-01T08:40:22.333Z,1000.50
2023-04-01T08:50:27.853Z,1000.53
2023-04-01T09:00:32.836Z,1000.55
2023-04-01T09:10:38.074Z,1000.59
2023-04-01T09:20:43.233Z,1000.79
2023-04-01T09:30:48.495Z,1000.96
2023-04-01T09:40:53.618Z,1001.05
2023-04-01T09:50:59.001Z,1001.09
2023-04-01T10:01:04.174Z,1001.20
2023-04-01T10:11:09.304Z,1001.31
2023-04-01T10:21:15.097Z,1001.43
2023-04-01T10:31:20.112Z,1001.44
2023-04-01T10:41:25.588Z,1001.51
2023-04-01T10:51:30.748Z,1001.57
2023-04-01T11:01:35.976Z,1001.58
2023-04-01T11:11:41.653Z,1001.68
2023-04-01T11:21:46.724Z,1001.78
2023-04-01T11:31:52.101Z,1001.90
2023-04-01T11:41:57.485Z,1002.05
2023-04-01T11:52:02.736Z,1002.17
2023-04-01T12:02:07.982Z,1002.32
2023-04-01T12:12:13.292Z,1002.41
2023-04-01T12:22:18.582Z,1002.50
2023-04-01T12:32:24.171Z,1002.60
2023-04-01T12:42:29.775Z,1002.71
2023-04-01T12:52:35.021Z,1002.84
2023-04-01T13:02:40.104Z,1002.91
2023-04-01T13:12:45.197Z,1003.01
2023-04-01T13:22:50.338Z,1003.16
2023-04-01T13:32:55.714Z,1003.28
2023-04-01T13:43:01.085Z,1003.40
2023-04-01T13:53:06.482Z,1003.47
2023-04-01T14:03:11.675Z,1003.57
2023-04-01T14:13:17.147Z,1003.70
2023-04-01T14:23:22.544Z,1003.90
2023-04-01T14:33:27.961Z,1004.01
2023-04-01T14:43:33.094Z,1004.13
2023-04-01T14:53:38.347Z,1004.24
2023-04-01T15:03:43.463Z,1004.43
2023-04-01T15:13:49.326Z,1004.50
2023-04-01T15:23:54.365Z,1004.60
2023-04-01T15:33:59.520Z,1004.73
2023-04-01T15:44:04.959Z,1004.83
2023-04-01T15:55:29.873Z,1005.04
2023-04-01T16:05:34.382Z,1005.14
2023-04-01T16:15:40.158Z,1005.31
2023-04-01T16:25:45.730Z,1005.48
2023-04-01T16:35:50.765Z,1005.69
2023-04-01T16:45:56.303Z,1005.82
2023-04-01T16:56:01.803Z,1006.02
2023-04-01T17:06:07.349Z,1006.22
2023-04-01T17:16:12.493Z,1006.50
2023-04-01T17:26:17.945Z,1006.66
2023-04-01T17:36:22.743Z,1006.79
2023-04-01T17:46:28.049Z,1006.98
2023-04-01T17:56:33.761Z,1007.16
2023-04-01T18:06:39.534Z,1007.34
2023-04-01T18:16:44.874Z,1007.54
2023-04-01T18:26:50.422Z,1007.71
2023-04-01T18:36:55.643Z,1007.91
2023-04-01T18:47:00.913Z,1008.16
2023-04-01T18:57:06.235Z,1008.35
2023-04-01T19:07:11.845Z,1008.47
2023-04-01T19:17:17.337Z,1008.57
2023-04-01T19:27:23.047Z,1008.68
2023-04-01T19:37:29.039Z,1008.86
2023-04-01T19:47:34.492Z,1009.03
2023-04-01T19:57:40.044Z,1009.23
2023-04-01T20:07:45.238Z,1009.36
2023-04-01T20:17:50.404Z,1009.65
2023-04-01T20:27:55.773Z,1009.90
2023-04-01T20:38:01.156Z,1010.07
2023-04-01T20:48:06.433Z,1010.18
2023-04-01T20:58:11.780Z,1010.29
2023-04-01T21:08:17.328Z,1010.45
2023-04-01T21:18:22.782Z,1010.64
2023-04-01T21:28:27.751Z,1010.82
2023-04-01T21:38:33.115Z,1010.93
2023-04-01T21:48:38.484Z,1011.13
2023-04-01T21:58:44.031Z,1011.27
2023-04-01T22:08:49.635Z,1011.40
2023-04-01T22:18:54.854Z,1011.54
2023-04-01T22:29:00.321Z,1011.66
2023-04-01T22:39:05.402Z,1011.79
2023-04-01T22:49:10.215Z,1011.90
2023-04-01T23:00:34.984Z,1012.05
2023-04-01T23:10:39.551Z,1012.23
2023-04-01T23:20:44.888Z,1012.33
2023-04-01T23:30:50.449Z,1012.46
2023-04-01T23:40:56.051Z,1012.63
2023-04-01T23:51:01.302Z,1012.77
